Time;durP1;ratioP1;P1;durP2;ratioP2;P2;SDS_P1;SDS_P2;PMS_P1;PMS_P2;Temp;Humidity;BMP_temperature;BMP_pressure;BME280_temperature;BME280_humidity;BME280_pressure;Samples;Min_cycle;Max_cycle;Signal;HPM_P1;HPM_P2
2023/11/03 00:02:17;;;;;;;;;;;;;;;29.15;74.54;100831.75;5035942;28;66463;-36
2023/11/03 00:04:47;;;;;;;;;;;;;;;29.18;74.29;100836.75;5042667;28;70535;-35
2023/11/03 00:07:18;;;;;;;;;;;;;;;29.24;75.32;100837.78;5041934;28;66725;-35
2023/11/03 00:09:48;;;;;;;;;;;;;;;29.26;74.25;100844.63;5040854;28;68857;-35
2023/11/03 00:12:18;;;;;;;;;;;;;;;29.30;76.65;100853.97;5042434;28;66258;-35
2023/11/03 00:14:48;;;;;;;;;;;;;;;29.31;76.52;100861.03;5042320;28;70695;-35
2023/11/03 00:17:18;;;;;;;;;;;;;;;29.32;76.30;100857.28;5041643;28;67018;-35
2023/11/03 00:19:48;;;;;;;;;;;;;;;29.38;77.40;100867.25;5041871;28;69484;-35
2023/11/03 00:22:18;;;;;;;;;;;;;;;29.38;77.19;100861.84;5038084;28;65830;-34
2023/11/03 00:24:48;;;;;;;;;;;;;;;29.40;77.81;100873.28;5040813;28;69975;-35
2023/11/03 00:27:17;;;;;;;;;;;;;;;29.43;78.24;100879.31;5036401;28;67426;-35
2023/11/03 00:29:47;;;;;;;;;;;;;;;29.45;77.77;100882.63;5040417;28;70263;-36
2023/11/03 00:32:18;;;;;;;;;;;;;;;29.46;79.11;100885.13;5039286;28;67210;-36
2023/11/03 00:34:48;;;;;;;;;;;;;;;29.51;79.63;100890.72;5052878;28;69876;-35
2023/11/03 00:37:18;;;;;;;;;;;;;;;29.50;78.58;100894.47;5042728;28;66549;-36
2023/11/03 00:39:48;;;;;;;;;;;;;;;29.53;76.94;100904.03;5038802;28;70492;-35
2023/11/03 00:42:17;;;;;;;;;;;;;;;29.54;74.67;100900.28;5040942;28;67330;-35
2023/11/03 00:44:47;;;;;;;;;;;;;;;29.56;74.18;100909.00;5049087;28;70185;-36
2023/11/03 00:47:17;;;;;;;;;;;;;;;29.58;72.69;100920.44;5039625;28;66410;-35
2023/11/03 00:49:47;;;;;;;;;;;;;;;29.59;71.65;100922.13;5049904;28;70632;-36
2023/11/03 00:52:16;;;;;;;;;;;;;;;29.62;71.56;100919.00;5040840;28;66015;-37
2023/11/03 00:54:46;;;;;;;;;;;;;;;29.62;70.83;100916.28;5040617;28;69253;-40
2023/11/03 00:57:16;;;;;;;;;;;;;;;29.64;71.04;100914.22;5040165;28;65154;-36
2023/11/03 00:59:46;;;;;;;;;;;;;;;29.66;70.26;100920.25;5039065;28;69727;-36
2023/11/03 01:02:17;;;;;;;;;;;;;;;29.66;70.33;100920.25;5038785;28;66222;-36
2023/11/03 01:04:47;;;;;;;;;;;;;;;29.68;70.15;100923.59;5036827;28;68683;-36
2023/11/03 01:07:17;;;;;;;;;;;;;;;29.70;69.75;100924.22;5035390;28;66249;-36
2023/11/03 01:09:47;;;;;;;;;;;;;;;29.71;69.92;100930.44;5038674;28;69730;-36
2023/11/03 01:12:18;;;;;;;;;;;;;;;29.72;69.25;100932.09;5036533;28;66130;-36
2023/11/03 01:14:51;;;;;;;;;;;;;;;29.73;69.91;100931.06;5041588;28;69839;-37
2023/11/03 01:17:22;;;;;;;;;;;;;;;29.74;69.19;100930.03;5040961;28;67050;-35
2023/11/03 01:19:52;;;;;;;;;;;;;;;29.74;69.33;100941.66;5030050;28;69113;-36
2023/11/03 01:22:22;;;;;;;;;;;;;;;29.76;69.02;100949.56;5056067;28;66557;-35
2023/11/03 01:24:52;;;;;;;;;;;;;;;29.77;69.44;100946.63;5032288;28;70290;-35
2023/11/03 01:27:22;;;;;;;;;;;;;;;29.78;69.59;100942.91;5026047;28;66918;-37
2023/11/03 01:29:52;;;;;;;;;;;;;;;29.79;68.85;100941.84;5034776;28;69406;-35
2023/11/03 01:32:22;;;;;;;;;;;;;;;29.80;69.30;100946.22;5039918;28;66668;-36
2023/11/03 01:34:52;;;;;;;;;;;;;;;29.80;69.15;100946.22;5039581;28;70656;-35
2023/11/03 01:37:22;;;;;;;;;;;;;;;29.82;68.74;100949.53;5038345;28;67022;-35
2023/11/03 01:39:52;;;;;;;;;;;;;;;29.83;68.80;100940.38;5038446;28;70055;-38
2023/11/03 01:42:22;;;;;;;;;;;;;;;29.84;68.82;100946.66;5036331;28;67278;-38
2023/11/03 01:44:51;;;;;;;;;;;;;;;29.88;68.86;100944.34;5037461;28;70383;-36
2023/11/03 01:47:21;;;;;;;;;;;;;;;29.88;69.05;100949.75;5038852;28;66776;-37
2023/11/03 01:49:51;;;;;;;;;;;;;;;29.91;69.09;100949.31;5037925;28;70529;-36
2023/11/03 01:52:21;;;;;;;;;;;;;;;29.91;68.95;100954.72;5039938;28;66588;-35
2023/11/03 01:54:51;;;;;;;;;;;;;;;29.93;68.92;100960.75;5036994;28;69447;-37
2023/11/03 01:57:21;;;;;;;;;;;;;;;29.94;68.75;100963.25;5036229;28;67383;-37
2023/11/03 01:59:51;;;;;;;;;;;;;;;29.96;68.88;100960.34;5042663;28;69896;-36
2023/11/03 02:02:22;;;;;;;;;;;;;;;29.98;68.82;100969.06;5038365;28;66224;-35
2023/11/03 02:04:52;;;;;;;;;;;;;;;30.00;68.89;100975.91;5039745;28;70269;-36
2023/11/03 02:07:22;;;;;;;;;;;;;;;30.02;68.70;100973.00;5036111;28;65950;-36
2023/11/03 02:09:52;;;;;;;;;;;;;;;30.04;68.67;100976.34;5038455;28;69787;-35
2023/11/03 02:12:21;;;;;;;;;;;;;;;30.06;68.14;100983.19;5036451;28;66878;-37
2023/11/03 02:14:51;;;;;;;;;;;;;;;30.07;68.34;100989.44;5038612;28;69888;-35
2023/11/03 02:17:21;;;;;;;;;;;;;;;30.09;68.02;100975.69;5023971;28;66380;-36
2023/11/03 02:19:52;;;;;;;;;;;;;;;30.12;68.66;100984.22;5039132;28;70620;-36
2023/11/03 02:22:21;;;;;;;;;;;;;;;30.13;68.64;100975.06;5037065;28;66402;-35
2023/11/03 02:24:51;;;;;;;;;;;;;;;30.15;68.57;100967.56;5031642;28;70950;-36
2023/11/03 02:27:32;;;;;;;;;;;;;;;30.17;67.92;100967.34;5099515;27;43609;-37
2023/11/03 02:30:03;;;;;;;;;;;;;;;30.20;68.09;100964.19;5095922;27;70121;-36
2023/11/03 02:32:33;;;;;;;;;;;;;;;30.22;68.48;100964.84;5123700;27;66398;-38
2023/11/03 02:35:03;;;;;;;;;;;;;;;30.24;68.11;100952.78;5098234;27;70000;-37
2023/11/03 02:37:33;;;;;;;;;;;;;;;30.25;67.89;100959.84;5095440;27;66154;-37
2023/11/03 02:40:03;;;;;;;;;;;;;;;30.27;68.23;100957.75;5096163;27;70103;-37
2023/11/03 02:42:33;;;;;;;;;;;;;;;30.30;68.02;100950.25;5098219;27;67033;-37
2023/11/03 02:45:03;;;;;;;;;;;;;;;30.33;67.77;100949.81;5095983;27;70186;-37
2023/11/03 02:47:33;;;;;;;;;;;;;;;30.34;67.76;100956.88;5097457;27;66217;-38
2023/11/03 02:50:04;;;;;;;;;;;;;;;30.37;68.02;100951.03;5096583;27;70406;-37
2023/11/03 02:52:34;;;;;;;;;;;;;;;30.38;68.04;100948.13;5097623;27;67050;-39
2023/11/03 02:55:04;;;;;;;;;;;;;;;30.41;67.80;100941.47;5097605;27;69894;-37
2023/11/03 02:57:34;;;;;;;;;;;;;;;30.43;68.00;100939.38;5096639;27;66362;-36
2023/11/03 03:00:04;;;;;;;;;;;;;;;30.44;68.30;100936.44;5095747;27;70759;-37
2023/11/03 03:02:35;;;;;;;;;;;;;;;30.46;68.26;100934.34;5097602;27;66662;-37
2023/11/03 03:05:06;;;;;;;;;;;;;;;30.50;68.12;100940.16;5095152;27;70269;-37
2023/11/03 03:07:35;;;;;;;;;;;;;;;30.53;68.71;100939.72;5097677;27;66378;-37
2023/11/03 03:10:06;;;;;;;;;;;;;;;30.57;70.73;100930.13;5095598;27;70135;-37
2023/11/03 03:12:35;;;;;;;;;;;;;;;30.27;69.33;100881.16;5086578;27;66702;-37
2023/11/03 03:15:06;;;;;;;;;;;;;;;30.63;69.98;100934.69;5094076;27;70122;-39
2023/11/03 03:17:36;;;;;;;;;;;;;;;30.66;69.83;100926.13;5097586;27;65543;-38
2023/11/03 03:20:06;;;;;;;;;;;;;;;30.68;70.00;100915.91;5096008;27;70353;-36
2023/11/03 03:22:36;;;;;;;;;;;;;;;30.71;70.09;100912.75;5080535;27;66153;-37
2023/11/03 03:25:06;;;;;;;;;;;;;;;30.72;69.90;100911.69;5096096;27;69534;-38
2023/11/03 03:27:36;;;;;;;;;;;;;;;30.75;69.68;100906.91;5095490;27;65271;-37
2023/11/03 03:30:06;;;;;;;;;;;;;;;30.78;70.05;100903.75;5118333;27;69410;-37
2023/11/03 03:32:36;;;;;;;;;;;;;;;30.80;69.88;100907.13;5118011;27;66356;-38
2023/11/03 03:35:06;;;;;;;;;;;;;;;30.81;69.77;100901.47;5116598;27;70474;-36
2023/11/03 03:37:37;;;;;;;;;;;;;;;30.84;69.94;100886.66;5092446;27;67242;-37
2023/11/03 03:40:07;;;;;;;;;;;;;;;30.86;69.60;100890.81;5084823;27;70464;-37
2023/11/03 03:42:36;;;;;;;;;;;;;;;30.88;69.75;100883.28;5101570;27;66119;-38
2023/11/03 03:45:06;;;;;;;;;;;;;;;30.91;69.45;100876.59;5102137;27;69884;-37
2023/11/03 03:47:37;;;;;;;;;;;;;;;30.92;69.15;100868.28;5083866;27;66286;-37
2023/11/03 03:50:07;;;;;;;;;;;;;;;30.95;69.23;100872.38;5095499;27;70617;-38
2023/11/03 03:52:37;;;;;;;;;;;;;;;30.97;69.29;100859.47;5101384;27;66127;-36
2023/11/03 03:55:07;;;;;;;;;;;;;;;30.98;69.08;100869.28;5100733;27;70568;-37
2023/11/03 03:57:37;;;;;;;;;;;;;;;31.01;69.21;100863.41;5064744;27;65325;-37
2023/11/03 04:00:07;;;;;;;;;;;;;;;31.02;69.37;100856.09;5083442;27;70463;-37
2023/11/03 04:02:36;;;;;;;;;;;;;;;31.04;68.93;100859.44;5102167;27;65997;-37
2023/11/03 04:05:06;;;;;;;;;;;;;;;31.06;68.63;100852.72;5099985;27;70937;-39
2023/11/03 04:07:36;;;;;;;;;;;;;;;31.08;68.98;100850.59;5101486;27;66062;-38
2023/11/03 04:10:06;;;;;;;;;;;;;;;31.09;69.12;100841.44;5101709;27;70286;-38
2023/11/03 04:12:36;;;;;;;;;;;;;;;31.10;68.58;100843.09;5099960;27;65606;-37
2023/11/03 04:15:06;;;;;;;;;;;;;;;31.12;68.99;100838.28;5083576;27;70795;-37
2023/11/03 04:17:37;;;;;;;;;;;;;;;31.14;68.90;100840.75;5101748;27;67261;-37
2023/11/03 04:20:08;;;;;;;;;;;;;;;31.15;68.67;100832.41;5098840;27;70026;-37
2023/11/03 04:22:38;;;;;;;;;;;;;;;31.16;68.63;100836.78;5102094;27;65848;-37
2023/11/03 04:25:07;;;;;;;;;;;;;;;31.19;68.56;100829.25;5102447;27;69895;-38
2023/11/03 04:27:39;;;;;;;;;;;;;;;31.21;68.32;100821.75;5096712;27;66771;-37
2023/11/03 04:30:09;;;;;;;;;;;;;;;31.23;68.41;100825.03;5102832;27;69343;-38
2023/11/03 04:32:39;;;;;;;;;;;;;;;31.24;68.28;100816.69;5100787;27;66641;-38
2023/11/03 04:35:09;;;;;;;;;;;;;;;31.26;68.09;100803.75;5100870;27;70329;-36
2023/11/03 04:37:39;;;;;;;;;;;;;;;31.27;68.55;100804.59;5102174;27;68415;-38
2023/11/03 04:40:09;;;;;;;;;;;;;;;31.29;68.08;100803.31;5102717;27;70246;-37
2023/11/03 04:42:39;;;;;;;;;;;;;;;31.30;68.52;100804.94;5100973;27;66243;-37
2023/11/03 04:45:08;;;;;;;;;;;;;;;31.32;68.12;100793.91;5102147;27;69354;-37
2023/11/03 04:47:38;;;;;;;;;;;;;;;31.33;68.02;100798.25;5103753;27;65643;-38
2023/11/03 04:50:10;;;;;;;;;;;;;;;31.34;68.07;100784.50;5082639;27;70026;-38
2023/11/03 04:52:40;;;;;;;;;;;;;;;31.35;68.20;100779.91;5102667;27;66883;-38
2023/11/03 04:55:10;;;;;;;;;;;;;;;31.37;67.80;100772.38;5103495;27;69778;-37
2023/11/03 04:57:40;;;;;;;;;;;;;;;31.37;67.91;100778.66;5083232;27;65693;-38
2023/11/03 05:00:10;;;;;;;;;;;;;;;31.39;67.82;100764.84;5102338;27;70416;-37
2023/11/03 05:02:40;;;;;;;;;;;;;;;31.40;67.78;100755.69;5102293;27;67062;-37
2023/11/03 05:05:10;;;;;;;;;;;;;;;31.42;67.85;100748.13;5083098;27;70478;-38
2023/11/03 05:07:40;;;;;;;;;;;;;;;31.43;67.85;100741.69;5103039;27;65707;-37
2023/11/03 05:10:10;;;;;;;;;;;;;;;31.45;67.59;100747.69;5101416;27;69749;-39
2023/11/03 05:12:40;;;;;;;;;;;;;;;31.47;67.81;100734.72;5097332;27;67245;-38
2023/11/03 05:15:10;;;;;;;;;;;;;;;31.48;68.02;100720.13;5101435;27;70338;-37
2023/11/03 05:17:40;;;;;;;;;;;;;;;31.50;67.76;100715.28;5099060;27;66598;-38
2023/11/03 05:20:11;;;;;;;;;;;;;;;31.51;67.95;100703.41;5101582;27;70500;-36
2023/11/03 05:22:41;;;;;;;;;;;;;;;31.53;67.62;100706.69;5102342;27;66167;-38
2023/11/03 05:25:11;;;;;;;;;;;;;;;31.54;67.78;100702.94;5101752;27;70766;-37
2023/11/03 05:27:41;;;;;;;;;;;;;;;31.57;67.34;100707.91;5101358;27;66964;-37
2023/11/03 05:30:11;;;;;;;;;;;;;;;31.59;67.81;100694.09;5102101;27;70286;-37
2023/11/03 05:32:41;;;;;;;;;;;;;;;31.59;67.68;100686.81;5101916;27;66691;-38
2023/11/03 05:35:11;;;;;;;;;;;;;;;31.61;67.61;100687.41;5099573;27;71252;-37
2023/11/03 05:37:40;;;;;;;;;;;;;;;31.64;67.46;100686.13;5094199;27;65917;-37
2023/11/03 05:40:11;;;;;;;;;;;;;;;31.65;67.34;100676.94;5102352;27;70484;-37
2023/11/03 05:42:41;;;;;;;;;;;;;;;31.67;67.23;100674.81;5101188;27;66592;-38
2023/11/03 05:45:11;;;;;;;;;;;;;;;31.69;67.46;100661.03;5101638;27;68811;-38
2023/11/03 05:47:41;;;;;;;;;;;;;;;31.71;67.46;100658.94;5102425;27;66742;-37
2023/11/03 05:50:11;;;;;;;;;;;;;;;31.73;67.19;100645.94;5101907;27;70610;-37
2023/11/03 05:52:41;;;;;;;;;;;;;;;31.76;67.36;100646.31;5101507;27;66843;-38
2023/11/03 05:55:11;;;;;;;;;;;;;;;31.78;67.16;100637.94;5088303;27;70938;-37
2023/11/03 05:57:40;;;;;;;;;;;;;;;31.79;67.18;100634.19;5099737;27;66404;-37
2023/11/03 06:00:11;;;;;;;;;;;;;;;31.80;67.38;100619.56;5083708;27;70048;-37
2023/11/03 06:02:41;;;;;;;;;;;;;;;31.82;67.38;100626.41;5083211;27;66183;-38
2023/11/03 06:05:12;;;;;;;;;;;;;;;31.85;67.09;100622.41;5101070;27;70675;-38
2023/11/03 06:07:42;;;;;;;;;;;;;;;31.87;66.95;100612.13;5056045;28;65553;-37
2023/11/03 06:10:13;;;;;;;;;;;;;;;31.89;67.23;100607.28;5092556;27;70673;-37
2023/11/03 06:12:43;;;;;;;;;;;;;;;31.91;67.11;100605.22;5100999;27;66869;-37
2023/11/03 06:15:13;;;;;;;;;;;;;;;31.93;66.86;100600.41;5101608;27;69493;-38
2023/11/03 06:17:44;;;;;;;;;;;;;;;31.95;66.84;100595.53;5082374;27;65871;-37
2023/11/03 06:20:14;;;;;;;;;;;;;;;31.95;66.79;100598.25;5101038;27;69968;-38
2023/11/03 06:22:44;;;;;;;;;;;;;;;31.98;66.94;100599.66;5100872;27;64725;-37
2023/11/03 06:25:14;;;;;;;;;;;;;;;32.01;66.79;100585.63;5099544;27;70770;-36
2023/11/03 06:27:44;;;;;;;;;;;;;;;32.03;66.79;100595.19;5100678;27;66898;-36
2023/11/03 06:30:14;;;;;;;;;;;;;;;32.05;66.76;100584.13;5101542;27;70774;-36
2023/11/03 06:32:44;;;;;;;;;;;;;;;32.06;66.70;100585.75;5100112;27;66820;-37
2023/11/03 06:35:14;;;;;;;;;;;;;;;32.09;66.71;100581.75;5100210;27;70747;-39
2023/11/03 06:37:44;;;;;;;;;;;;;;;32.09;66.39;100569.00;5101344;27;66117;-37
2023/11/03 06:40:15;;;;;;;;;;;;;;;32.12;66.41;100567.72;5098588;27;69192;-38
2023/11/03 06:42:45;;;;;;;;;;;;;;;32.14;66.37;100562.88;5100546;27;66318;-36
2023/11/03 06:45:16;;;;;;;;;;;;;;;32.16;66.36;100563.47;5088700;27;70286;-37
2023/11/03 06:47:48;;;;;;;;;;;;;;;32.18;66.53;100566.75;5098673;27;66067;-36
2023/11/03 06:50:18;;;;;;;;;;;;;;;32.20;66.28;100560.03;5100996;27;69753;-37
2023/11/03 06:52:49;;;;;;;;;;;;;;;32.22;66.43;100551.66;5100487;27;66896;-37
2023/11/03 06:55:20;;;;;;;;;;;;;;;32.25;66.31;100562.03;5082606;27;70668;-38
2023/11/03 06:57:49;;;;;;;;;;;;;;;32.26;66.14;100548.25;5082238;27;66368;-37
2023/11/03 07:00:19;;;;;;;;;;;;;;;32.27;66.04;100530.06;5101171;27;69769;-38
2023/11/03 07:02:49;;;;;;;;;;;;;;;32.29;65.92;100530.66;5080662;27;65589;-38
2023/11/03 07:05:23;;;;;;;;;;;;;;;32.30;65.98;100528.78;5102860;27;71209;-38
2023/11/03 07:07:53;;;;;;;;;;;;;;;32.32;65.84;100524.75;5083743;27;66658;-38
2023/11/03 07:10:24;;;;;;;;;;;;;;;32.33;65.73;100510.09;5083303;27;70767;-38
2023/11/03 07:12:54;;;;;;;;;;;;;;;32.34;65.93;100505.50;5102060;27;65133;-39
2023/11/03 07:15:24;;;;;;;;;;;;;;;32.35;65.68;100507.16;5085373;27;68486;-37
2023/11/03 07:17:54;;;;;;;;;;;;;;;32.37;65.74;100505.84;5085576;27;65926;-37
2023/11/03 07:20:24;;;;;;;;;;;;;;;32.38;65.43;100501.25;5102092;27;70530;-38
2023/11/03 07:22:54;;;;;;;;;;;;;;;32.37;65.66;100505.84;5102114;27;65857;-38
2023/11/03 07:25:27;;;;;;;;;;;;;;;32.40;65.57;100499.97;5102497;27;70093;-38
2023/11/03 07:27:57;;;;;;;;;;;;;;;32.40;65.42;100497.25;5102775;27;66917;-37
2023/11/03 07:30:28;;;;;;;;;;;;;;;32.40;65.54;100494.53;5102212;27;69807;-36
2023/11/03 07:32:58;;;;;;;;;;;;;;;32.43;65.39;100498.63;5102819;27;66039;-37
2023/11/03 07:35:29;;;;;;;;;;;;;;;32.43;65.22;100499.47;5102976;27;70101;-38
2023/11/03 07:37:58;;;;;;;;;;;;;;;32.31;65.35;100474.22;5102300;27;65398;-37
2023/11/03 07:40:28;;;;;;;;;;;;;;;32.46;65.06;100499.03;5103699;27;69297;-37
2023/11/03 07:42:58;;;;;;;;;;;;;;;32.46;65.47;100501.75;5103243;27;67165;-37
2023/11/03 07:45:28;;;;;;;;;;;;;;;32.47;65.32;100497.94;5102730;27;70384;-38
2023/11/03 07:47:57;;;;;;;;;;;;;;;32.49;65.37;100500.44;5099838;27;66586;-37
2023/11/03 07:50:27;;;;;;;;;;;;;;;32.51;65.00;100500.19;5104386;27;70602;-37
2023/11/03 07:52:57;;;;;;;;;;;;;;;32.52;65.22;100507.28;5102773;27;65604;-37
2023/11/03 07:55:27;;;;;;;;;;;;;;;32.51;64.99;100500.19;5103348;27;70419;-37
2023/11/03 07:57:56;;;;;;;;;;;;;;;32.51;64.92;100506.44;5102460;27;66130;-37
2023/11/03 08:00:27;;;;;;;;;;;;;;;32.52;65.35;100504.56;5083299;27;68952;-36
2023/11/03 08:02:56;;;;;;;;;;;;;;;32.53;65.01;100508.91;5102219;27;67113;-39
2023/11/03 08:05:26;;;;;;;;;;;;;;;32.53;65.10;100504.31;5098637;27;70418;-37
2023/11/03 08:07:56;;;;;;;;;;;;;;;32.53;65.04;100506.19;5100481;27;66360;-37
2023/11/03 08:10:26;;;;;;;;;;;;;;;32.53;65.20;100522.50;5102825;27;69872;-38
2023/11/03 08:12:58;;;;;;;;;;;;;;;32.53;65.05;100530.63;5084679;27;66072;-38
2023/11/03 08:15:27;;;;;;;;;;;;;;;32.53;65.10;100538.78;5099324;27;70834;-36
2023/11/03 08:18:00;;;;;;;;;;;;;;;32.54;64.95;100532.28;5098261;27;66750;-37
2023/11/03 08:20:29;;;;;;;;;;;;;;;32.55;65.15;100523.09;5103462;27;69666;-37
2023/11/03 08:22:59;;;;;;;;;;;;;;;32.55;65.13;100517.66;5095949;27;66208;-37
2023/11/03 08:25:29;;;;;;;;;;;;;;;32.54;65.25;100505.13;5101759;27;69166;-37
2023/11/03 08:27:59;;;;;;;;;;;;;;;32.54;65.55;100521.41;5101890;27;66388;-37
2023/11/03 08:30:29;;;;;;;;;;;;;;;32.55;65.53;100550.25;5101485;27;69459;-38
2023/11/03 08:32:59;;;;;;;;;;;;;;;32.55;65.46;100555.66;5102438;27;66544;-38
2023/11/03 08:35:30;;;;;;;;;;;;;;;32.54;65.74;100570.28;5101779;27;69069;-37
2023/11/03 08:38:00;;;;;;;;;;;;;;;32.54;65.71;100573.84;5101076;27;65608;-38
2023/11/03 08:40:30;;;;;;;;;;;;;;;32.54;65.87;100575.72;5101573;27;70180;-38
2023/11/03 08:43:01;;;;;;;;;;;;;;;32.54;65.93;100575.72;5100579;27;66794;-37
2023/11/03 08:45:30;;;;;;;;;;;;;;;32.54;65.83;100570.28;5100916;27;70299;-36
2023/11/03 08:48:01;;;;;;;;;;;;;;;32.53;66.04;100566.75;5102239;27;66603;-38
2023/11/03 08:50:31;;;;;;;;;;;;;;;32.51;65.95;100565.34;5102449;27;70621;-36
2023/11/03 08:53:00;;;;;;;;;;;;;;;32.52;65.94;100567.84;5100331;27;66612;-37
2023/11/03 08:55:30;;;;;;;;;;;;;;;32.51;66.13;100570.78;5101212;27;69799;-37
2023/11/03 08:58:00;;;;;;;;;;;;;;;32.48;66.01;100588.34;5101333;27;66919;-39
2023/11/03 09:00:30;;;;;;;;;;;;;;;32.49;66.15;100607.13;5100402;27;70380;-37
2023/11/03 09:03:00;;;;;;;;;;;;;;;32.49;66.15;100618.00;5100713;27;66447;-37
2023/11/03 09:05:30;;;;;;;;;;;;;;;32.47;66.16;100625.56;5101544;27;70783;-36
2023/11/03 09:08:00;;;;;;;;;;;;;;;32.47;66.15;100636.41;5100323;27;66390;-37
2023/11/03 09:10:50;;;;;;;;;;;;;;;32.45;66.16;100640.38;5101550;27;70677;-38
2023/11/03 09:13:20;;;;;;;;;;;;;;;32.43;66.08;100643.34;5100714;27;67097;-37
2023/11/03 09:15:50;;;;;;;;;;;;;;;32.41;66.21;100647.38;5100296;27;70390;-37
2023/11/03 09:18:22;;;;;;;;;;;;;;;32.09;68.07;100655.00;5100968;27;66991;-37
2023/11/03 09:20:52;;;;;;;;;;;;;;;31.87;69.96;100660.94;5088178;27;70544;-37
2023/11/03 09:23:22;;;;;;;;;;;;;;;31.80;70.66;100662.94;5102201;27;66715;-37
2023/11/03 09:25:52;;;;;;;;;;;;;;;31.72;71.30;100661.38;5101142;27;70538;-37
2023/11/03 09:28:21;;;;;;;;;;;;;;;31.68;71.56;100656.66;5080909;27;65418;-38
2023/11/03 09:30:52;;;;;;;;;;;;;;;31.86;70.47;100662.00;5100481;27;69701;-40
2023/11/03 09:33:22;;;;;;;;;;;;;;;31.98;70.08;100657.50;5101173;27;67012;-37
2023/11/03 09:35:52;;;;;;;;;;;;;;;32.03;69.67;100643.22;5097130;27;70723;-37
2023/11/03 09:38:21;;;;;;;;;;;;;;;32.07;69.54;100640.84;5101551;27;67022;-37
2023/11/03 09:40:51;;;;;;;;;;;;;;;32.08;69.10;100637.09;5101098;27;70355;-37
2023/11/03 09:43:21;;;;;;;;;;;;;;;32.10;69.07;100643.13;5097621;27;67069;-37
2023/11/03 09:45:52;;;;;;;;;;;;;;;32.09;68.87;100644.16;5101752;27;69397;-37
2023/11/03 09:48:22;;;;;;;;;;;;;;;32.10;68.67;100634.97;5098920;27;66122;-37
2023/11/03 09:50:52;;;;;;;;;;;;;;;32.09;68.73;100614.31;5090991;27;70371;-37
2023/11/03 09:53:22;;;;;;;;;;;;;;;32.09;68.69;100606.16;5101061;27;66973;-38
2023/11/03 09:55:53;;;;;;;;;;;;;;;32.08;68.69;100601.81;5101220;27;70918;-37
2023/11/03 09:58:22;;;;;;;;;;;;;;;32.07;68.83;100605.56;5099939;27;66873;-37
2023/11/03 10:00:52;;;;;;;;;;;;;;;32.06;68.70;100610.19;5099963;27;70478;-38
2023/11/03 10:03:22;;;;;;;;;;;;;;;32.04;68.97;100605.00;5100361;27;66724;-38
2023/11/03 10:05:51;;;;;;;;;;;;;;;32.03;68.72;100599.78;5099098;27;69718;-38
2023/11/03 10:08:21;;;;;;;;;;;;;;;32.02;68.71;100598.97;5079460;27;66448;-38
2023/11/03 10:10:51;;;;;;;;;;;;;;;31.98;69.62;100616.78;5099304;27;70721;-39
2023/11/03 10:13:23;;;;;;;;;;;;;;;31.72;71.48;100630.75;5097737;27;66870;-39
2023/11/03 10:15:56;;;;;;;;;;;;;;;31.58;72.89;100655.34;5097186;27;68660;-39
2023/11/03 10:18:26;;;;;;;;;;;;;;;31.51;73.19;100676.31;5101141;27;65810;-38
2023/11/03 10:20:56;;;;;;;;;;;;;;;31.47;74.00;100695.97;5077286;27;70597;-40
2023/11/03 10:23:28;;;;;;;;;;;;;;;31.43;74.39;100701.00;5102964;27;65873;-39
2023/11/03 10:25:58;;;;;;;;;;;;;;;31.39;74.78;100688.97;5082870;27;70139;-40
2023/11/03 10:28:31;;;;;;;;;;;;;;;31.35;74.90;100671.47;5101535;27;66060;-40
2023/11/03 10:31:06;;;;;;;;;;;;;;;31.30;75.06;100655.06;5102607;27;69542;-39
2023/11/03 10:33:35;;;;;;;;;;;;;;;31.30;75.43;100639.63;5100838;27;66972;-41
2023/11/03 10:36:08;;;;;;;;;;;;;;;31.28;76.02;100614.63;5101099;27;69979;-39
2023/11/03 10:38:38;;;;;;;;;;;;;;;31.27;76.03;100601.34;5101502;27;66670;-40
2023/11/03 10:41:21;;;;;;;;;;;;;;;31.27;76.25;100609.47;5103120;27;70359;-38
2023/11/03 10:43:56;;;;;;;;;;;;;;;31.28;75.70;100628.19;5103023;27;66797;-43
2023/11/03 10:46:32;;;;;;;;;;;;;;;31.28;75.74;100670.72;5100873;27;69374;-39
2023/11/03 10:49:25;;;;;;;;;;;;;;;31.26;76.00;100694.50;5104371;27;66099;-38
2023/11/03 10:52:13;;;;;;;;;;;;;;;31.25;76.33;100714.53;5098014;27;71076;-39
2023/11/03 10:54:56;;;;;;;;;;;;;;;31.27;76.36;100715.16;5105060;27;66133;-42
2023/11/03 10:57:27;;;;;;;;;;;;;;;31.24;76.31;100708.31;5096629;27;68935;-40
2023/11/03 11:00:12;;;;;;;;;;;;;;;31.23;76.33;100697.69;5094094;27;66810;-40
2023/11/03 11:03:01;;;;;;;;;;;;;;;31.23;76.24;100690.41;5105249;27;69599;-39
2023/11/03 11:05:51;;;;;;;;;;;;;;;31.22;76.66;100682.47;5077705;27;66710;-40
2023/11/03 11:08:26;;;;;;;;;;;;;;;31.22;76.81;100690.63;5088804;27;70532;-39
2023/11/03 11:10:58;;;;;;;;;;;;;;;31.23;76.65;100695.81;5101994;27;67105;-39
2023/11/03 11:13:28;;;;;;;;;;;;;;;31.21;76.72;100702.53;5102130;27;69877;-40
2023/11/03 11:15:58;;;;;;;;;;;;;;;31.19;76.96;100707.31;5086062;27;67058;-39
2023/11/03 11:18:33;;;;;;;;;;;;;;;31.17;77.38;100712.97;5101702;27;70258;-44
2023/11/03 11:21:15;;;;;;;;;;;;;;;31.16;77.42;100722.97;5081229;27;66525;-38
2023/11/03 11:23:47;;;;;;;;;;;;;;;31.28;76.18;100736.59;5084579;27;70276;-38
2023/11/03 11:26:20;;;;;;;;;;;;;;;31.36;75.46;100738.22;5084050;27;66534;-38
2023/11/03 11:28:53;;;;;;;;;;;;;;;31.41;74.67;100754.63;5086837;27;69992;-39
2023/11/03 11:31:27;;;;;;;;;;;;;;;31.45;74.17;100757.69;5083628;27;66372;-38
2023/11/03 11:34:04;;;;;;;;;;;;;;;31.48;73.83;100762.66;5102856;27;69741;-39
2023/11/03 11:36:35;;;;;;;;;;;;;;;31.50;73.39;100758.66;5082908;27;66935;-40
2023/11/03 11:39:12;;;;;;;;;;;;;;;31.53;73.28;100739.22;5085724;27;69852;-38
2023/11/03 11:41:54;;;;;;;;;;;;;;;31.54;73.07;100719.22;5102687;27;66999;-39
2023/11/03 11:44:25;;;;;;;;;;;;;;;31.56;72.83;100717.09;5103708;27;70222;-38
2023/11/03 11:46:56;;;;;;;;;;;;;;;31.58;72.55;100719.59;5102914;27;66880;-38
2023/11/03 11:49:27;;;;;;;;;;;;;;;31.57;72.55;100729.59;5085136;27;69772;-38
2023/11/03 11:51:59;;;;;;;;;;;;;;;31.58;72.46;100741.28;5103749;27;65501;-38
2023/11/03 11:54:29;;;;;;;;;;;;;;;31.58;72.30;100758.34;5085139;27;69876;-38
2023/11/03 11:57:00;;;;;;;;;;;;;;;31.58;72.37;100769.22;5100630;27;66027;-38
2023/11/03 11:59:32;;;;;;;;;;;;;;;31.58;72.23;100774.63;5103103;27;69845;-39
2023/11/03 12:02:02;;;;;;;;;;;;;;;31.57;72.20;100778.41;5104270;27;67995;-38
2023/11/03 12:04:36;;;;;;;;;;;;;;;31.57;72.47;100780.28;5104844;27;69530;-39
2023/11/03 12:07:06;;;;;;;;;;;;;;;31.56;72.32;100787.56;5106614;27;66069;-39
2023/11/03 12:09:36;;;;;;;;;;;;;;;31.56;72.26;100798.41;5103489;27;69053;-38
2023/11/03 12:12:07;;;;;;;;;;;;;;;31.55;72.40;100796.78;5101753;27;66896;-38
2023/11/03 12:14:37;;;;;;;;;;;;;;;31.55;72.50;100791.34;5103663;27;68753;-38
2023/11/03 12:17:10;;;;;;;;;;;;;;;31.55;72.46;100802.19;5103650;27;66520;-39
2023/11/03 12:19:46;;;;;;;;;;;;;;;31.55;72.27;100802.19;5103158;27;69304;-39
2023/11/03 12:22:19;;;;;;;;;;;;;;;31.53;72.42;100804.31;5102715;27;66821;-38
2023/11/03 12:24:50;;;;;;;;;;;;;;;31.54;72.22;100805.97;5084709;27;69079;-39
2023/11/03 12:27:23;;;;;;;;;;;;;;;31.53;72.59;100808.91;5101382;27;66697;-38
2023/11/03 12:30:05;;;;;;;;;;;;;;;31.52;73.10;100805.38;5102252;27;70391;-39
2023/11/03 12:32:44;;;;;;;;;;;;;;;31.45;74.30;100811.91;5098460;27;66320;-38
2023/11/03 12:35:17;;;;;;;;;;;;;;;31.30;75.69;100817.69;5102502;27;69246;-38
2023/11/03 12:37:47;;;;;;;;;;;;;;;31.21;75.62;100824.47;5083574;27;66311;-38
2023/11/03 12:40:21;;;;;;;;;;;;;;;31.14;75.82;100821.78;5082740;27;69083;-39
2023/11/03 12:42:52;;;;;;;;;;;;;;;31.07;76.25;100826.47;5100840;27;65729;-40
2023/11/03 12:45:26;;;;;;;;;;;;;;;31.02;76.92;100827.13;5079700;27;69923;-38
2023/11/03 12:47:56;;;;;;;;;;;;;;;30.86;76.83;100809.56;5103302;27;65465;-39
2023/11/03 12:50:28;;;;;;;;;;;;;;;30.91;77.06;100833.28;5101547;27;69320;-44
2023/11/03 12:53:05;;;;;;;;;;;;;;;30.90;77.54;100839.75;5102504;27;66824;-40
2023/11/03 12:55:34;;;;;;;;;;;;;;;30.92;77.84;100845.75;5102081;27;70227;-38